Martin Miguel De Guemes International Airport
SASA : now visible

Airfield :











YOU CAN JOIN US ON...

 
LOGIN :

Register | Disclaimer

   EN    FR    IT 

 









Legend :    VFR   Marginal VFR   IFR   Intensive IFR   Very Intensive IFR
Visi :
Ceiling :
>= 8 km
>= 3000ft
5 to 8 km
1000 to 3000 ft
1500m to 5 km
500 to 1000 ft
800 to 1500m
200 to 500 ft
< 800m
< 200 ft
Symbols :   Thunderstorms  Fog  Heavy snow  Heavy precipitations  Wind > 20 kt






- Airport Elevation : 4088 ft
- IATA code : SLA


SASA - Martin Miguel De Guemes International

CURRENT METAR :
  • 291400Z 18003KT 9999 SCT010 SCT020 20/16 Q1026

EXPIRED METARs :
  • 291300Z 18008KT 9999 VCSH SCT003 SCT030 BKN100 19/16 Q1026
  • 291200Z 16005KT 9999 VCSH SCT030 BKN100 17/16 Q1026
  • 291100Z 18005KT 8000 -RA SCT010 SCT020 BKN040 17/16 Q1025

TAF TAF SASA
Valid from the 29 at 12:00 until the 01 at 12:00 UTC


291100Z 2912/0112 23005KT 5000 RA SCT010 OVC040 TX28/2519Z TN18/0110Z
BECMG 2915/2918 05010KT 8000 SCT015 BKN035
BECMG 0100/0103 VRB03KT 5000 DZ OVC010



MET'MAP, your aeronautical weather chart ! - Copyright ORBIFLY December 2007 - Disclaimer

ORBIFLY MET'MAP TEAM :

Programming & Development : Alexandra Zaïnal
Concept & original design : Baudouin d'Aumeries
Assistance for programming : Marc-Olivier Méhu
Technical & hardware support : Manuel Goepfert

Contact : metmap@orbifly.com




SOURCES & CREDITS :

   NOAA       Earth
Advisory